Time;durP1;ratioP1;P1;durP2;ratioP2;P2;SDS_P1;SDS_P2;PMS_P1;PMS_P2;Temp;Humidity;BMP_temperature;BMP_pressure;BME280_temperature;BME280_humidity;BME280_pressure;Samples;Min_cycle;Max_cycle;Signal;HPM_P1;HPM_P2
2022/10/13 00:01:46;;;;;;;10.33;8.00;;;7.80;99.90;;;;;;5029160;28;20446;-84
2022/10/13 00:04:13;;;;;;;13.50;8.70;;;7.80;99.90;;;;;;5028476;28;20449;-85
2022/10/13 00:06:40;;;;;;;10.75;8.70;;;7.80;99.90;;;;;;5027822;28;20200;-84
2022/10/13 00:09:06;;;;;;;15.52;7.90;;;7.70;99.90;;;;;;5026679;28;20204;-85
2022/10/13 00:11:34;;;;;;;11.50;7.57;;;7.70;99.90;;;;;;5026185;28;20252;-85
2022/10/13 00:14:03;;;;;;;14.82;9.18;;;7.70;99.90;;;;;;5027171;28;20418;-84
2022/10/13 00:16:31;;;;;;;12.65;10.00;;;7.70;99.90;;;;;;5026702;28;20220;-85
2022/10/13 00:18:59;;;;;;;12.40;8.30;;;7.70;99.90;;;;;;5024648;28;20223;-85
2022/10/13 00:21:27;;;;;;;13.93;9.43;;;7.60;99.90;;;;;;5024455;28;20464;-84
2022/10/13 00:23:54;;;;;;;10.53;8.63;;;7.60;99.90;;;;;;5022579;28;20470;-84
2022/10/13 00:26:23;;;;;;;9.00;7.00;;;7.90;99.90;;;;;;5022301;28;20416;-83
2022/10/13 00:28:52;;;;;;;9.20;7.78;;;7.60;99.90;;;;;;5021959;28;20208;-84
2022/10/13 00:31:20;;;;;;;10.30;8.30;;;7.60;99.90;;;;;;5019496;28;20228;-84
2022/10/13 00:33:48;;;;;;;14.63;8.15;;;7.50;99.90;;;;;;5019463;28;20273;-84
2022/10/13 00:36:15;;;;;;;20.10;7.60;;;7.50;99.90;;;;;;5019394;28;20234;-84
2022/10/13 00:38:42;;;;;;;9.80;8.80;;;7.60;99.90;;;;;;5019665;28;20215;-85
2022/10/13 00:41:09;;;;;;;9.85;6.50;;;7.30;99.90;;;;;;5018967;28;20247;-85
2022/10/13 00:43:57;;;;;;;14.57;8.60;;;7.50;99.90;;;;;;5019880;28;20319;-85
2022/10/13 00:46:25;;;;;;;10.83;7.53;;;7.50;99.90;;;;;;5019688;28;20297;-84
2022/10/13 00:48:53;;;;;;;13.43;8.13;;;7.50;99.90;;;;;;5019437;28;20474;-84
2022/10/13 00:51:24;;;;;;;13.73;7.33;;;7.50;99.90;;;;;;5020141;28;20993;-84
2022/10/13 00:53:52;;;;;;;12.20;9.02;;;7.40;99.90;;;;;;5020228;28;20446;-85
2022/10/13 00:56:21;;;;;;;11.50;7.63;;;7.40;99.90;;;;;;5019662;28;20224;-85
2022/10/13 00:58:49;;;;;;;11.83;7.70;;;7.40;99.90;;;;;;5019124;28;20218;-84
2022/10/13 01:01:17;;;;;;;16.33;8.00;;;7.40;99.90;;;;;;5021545;28;20467;-84
2022/10/13 01:03:44;;;;;;;10.73;7.15;;;7.40;99.90;;;;;;5022838;28;20204;-84
2022/10/13 01:06:13;;;;;;;11.43;7.70;;;7.40;99.90;;;;;;5026979;28;20207;-83
2022/10/13 01:08:39;;;;;;;12.13;7.50;;;7.40;99.90;;;;;;5018540;28;20231;-84
2022/10/13 01:11:39;;;;;;;16.23;8.18;;;7.30;99.90;;;;;;5018767;28;20207;-82
2022/10/13 01:14:13;;;;;;;12.95;7.72;;;7.20;99.90;;;;;;5008900;28;20230;-84
2022/10/13 01:16:52;;;;;;;9.30;6.93;;;7.50;99.90;;;;;;5031276;28;20216;-84
2022/10/13 01:19:49;;;;;;;13.07;7.63;;;7.50;99.90;;;;;;5031880;28;20195;-83
2022/10/13 01:22:29;;;;;;;10.82;7.32;;;7.40;99.90;;;;;;5023267;28;20232;-84
2022/10/13 01:25:05;;;;;;;12.35;7.43;;;7.40;99.90;;;;;;5022940;28;20191;-85
2022/10/13 01:27:51;;;;;;;9.30;6.43;;;7.30;99.90;;;;;;5021362;28;20184;-85
2022/10/13 01:30:21;;;;;;;9.93;6.75;;;7.30;99.90;;;;;;5039092;28;20419;-85
2022/10/13 01:33:10;;;;;;;11.75;7.80;;;7.20;99.90;;;;;;5038964;28;20223;-85
2022/10/13 01:35:44;;;;;;;10.50;7.72;;;7.30;99.90;;;;;;5038772;28;20220;-85
2022/10/13 01:38:18;;;;;;;9.82;7.85;;;7.20;99.90;;;;;;5038067;28;20273;-85
2022/10/13 01:40:52;;;;;;;10.30;7.63;;;7.20;99.90;;;;;;5029093;28;20310;-85
2022/10/13 01:43:24;;;;;;;7.65;6.80;;;7.30;99.90;;;;;;5025749;28;20194;-85
2022/10/13 01:45:56;;;;;;;8.65;6.57;;;7.30;99.90;;;;;;5021237;28;20199;-85
2022/10/13 01:48:25;;;;;;;11.20;6.72;;;7.30;99.90;;;;;;5019689;28;20192;-86
2022/10/13 01:50:53;;;;;;;12.50;7.75;;;7.40;99.90;;;;;;5027439;28;20230;-83
2022/10/13 01:53:21;;;;;;;11.35;7.30;;;7.30;99.90;;;;;;5016181;28;20255;-84
2022/10/13 01:55:52;;;;;;;11.55;8.35;;;7.30;99.90;;;;;;5015114;28;20219;-84
2022/10/13 01:58:20;;;;;;;10.70;8.07;;;7.20;99.90;;;;;;5015847;28;20224;-84
2022/10/13 02:01:12;;;;;;;12.55;7.97;;;7.20;99.90;;;;;;5016224;28;20207;-84
2022/10/13 02:03:49;;;;;;;9.85;7.28;;;7.10;99.90;;;;;;5016596;28;20226;-84
2022/10/13 02:06:20;;;;;;;13.13;7.30;;;7.20;99.90;;;;;;5018088;28;20619;-84
2022/10/13 02:08:56;;;;;;;10.07;7.50;;;7.30;99.90;;;;;;5016677;28;20191;-84
2022/10/13 02:11:23;;;;;;;10.00;7.38;;;7.30;99.90;;;;;;5017483;28;20582;-85
2022/10/13 02:13:55;;;;;;;11.95;8.95;;;7.30;99.90;;;;;;5017601;28;20215;-84
2022/10/13 02:16:24;;;;;;;15.55;7.82;;;7.50;99.90;;;;;;5014627;28;20198;-84
2022/10/13 02:18:52;;;;;;;17.92;12.05;;;7.60;99.90;;;;;;5015061;28;20208;-84
2022/10/13 02:21:19;;;;;;;15.88;7.95;;;7.50;99.90;;;;;;5015407;28;20228;-84
2022/10/13 02:23:46;;;;;;;10.48;6.65;;;7.50;99.90;;;;;;5016790;28;20210;-83
2022/10/13 02:26:13;;;;;;;10.13;7.65;;;7.50;99.90;;;;;;5016127;28;20204;-84
2022/10/13 02:28:41;;;;;;;21.23;7.15;;;7.60;99.90;;;;;;5016104;28;20608;-84
2022/10/13 02:31:08;;;;;;;10.25;7.32;;;7.60;99.90;;;;;;5015477;28;20211;-83
2022/10/13 02:33:36;;;;;;;10.30;6.97;;;7.40;99.90;;;;;;5017168;28;20192;-84
2022/10/13 02:36:03;;;;;;;9.10;7.72;;;7.50;99.90;;;;;;5018140;28;20204;-83
2022/10/13 02:38:30;;;;;;;9.13;6.60;;;7.50;99.90;;;;;;5030525;28;20214;-85
2022/10/13 02:40:57;;;;;;;14.75;7.40;;;7.80;99.90;;;;;;5038305;28;20187;-81
2022/10/13 02:43:24;;;;;;;14.93;7.80;;;7.50;99.90;;;;;;5038487;28;20263;-83
2022/10/13 02:45:51;;;;;;;14.88;8.23;;;7.40;99.90;;;;;;5026969;28;20693;-84
2022/10/13 02:48:17;;;;;;;13.63;8.35;;;7.40;99.90;;;;;;5019177;28;20553;-84
2022/10/13 02:50:46;;;;;;;10.38;6.63;;;7.30;99.90;;;;;;5019337;28;20239;-84
2022/10/13 02:53:12;;;;;;;10.68;6.80;;;7.30;99.90;;;;;;5018195;28;20235;-84
2022/10/13 02:55:39;;;;;;;10.32;7.28;;;7.30;99.90;;;;;;5020341;28;20208;-84
2022/10/13 02:58:06;;;;;;;18.83;8.45;;;7.20;99.90;;;;;;5022299;28;20226;-84
2022/10/13 03:00:32;;;;;;;13.23;7.32;;;7.20;99.90;;;;;;5022449;28;20208;-85
2022/10/13 03:02:59;;;;;;;8.80;7.65;;;7.20;99.90;;;;;;5022023;28;20293;-85
2022/10/13 03:05:26;;;;;;;11.00;6.78;;;7.10;99.90;;;;;;5023321;28;20220;-85
2022/10/13 03:07:54;;;;;;;14.65;7.60;;;7.10;99.90;;;;;;5020892;28;20207;-84
2022/10/13 03:10:21;;;;;;;9.05;7.90;;;7.20;99.90;;;;;;5020899;28;20214;-85
2022/10/13 03:12:48;;;;;;;12.57;8.75;;;7.20;99.90;;;;;;5021673;28;20745;-84
2022/10/13 03:15:15;;;;;;;15.88;8.38;;;7.10;99.90;;;;;;5023338;28;20207;-84
2022/10/13 03:17:41;;;;;;;9.10;6.93;;;7.00;99.90;;;;;;5027133;28;20231;-84
2022/10/13 03:20:09;;;;;;;11.63;8.15;;;7.00;99.90;;;;;;5039197;28;20208;-84
2022/10/13 03:22:36;;;;;;;11.38;7.82;;;7.00;99.90;;;;;;5040125;28;20238;-84
2022/10/13 03:25:05;;;;;;;11.38;7.60;;;7.10;99.90;;;;;;5031175;28;20204;-84
2022/10/13 03:27:31;;;;;;;11.02;8.25;;;7.10;99.90;;;;;;5024126;28;20235;-84
2022/10/13 03:29:58;;;;;;;10.73;6.75;;;7.00;99.90;;;;;;5022953;28;20215;-85
2022/10/13 03:32:25;;;;;;;11.40;7.68;;;7.10;99.90;;;;;;5051004;22;20277;-82
2022/10/13 03:34:51;;;;;;;9.63;7.78;;;7.20;99.90;;;;;;5038464;28;20208;-83
2022/10/13 03:37:18;;;;;;;18.45;8.32;;;7.10;99.90;;;;;;5037929;28;20211;-82
2022/10/13 03:39:45;;;;;;;11.23;7.45;;;7.10;99.90;;;;;;5034402;28;20210;-84
2022/10/13 03:42:13;;;;;;;10.15;6.95;;;7.10;99.90;;;;;;5034452;28;20238;-84
2022/10/13 03:44:40;;;;;;;10.20;7.88;;;7.00;99.90;;;;;;5034320;28;20202;-84
2022/10/13 03:47:07;;;;;;;14.93;7.50;;;7.00;99.90;;;;;;5035390;28;20219;-84
2022/10/13 03:49:34;;;;;;;13.60;7.38;;;6.90;99.90;;;;;;5030412;28;20210;-82
2022/10/13 03:52:00;;;;;;;12.68;7.93;;;6.90;99.90;;;;;;5028322;28;20314;-84
2022/10/13 03:54:27;;;;;;;10.10;8.02;;;6.90;99.90;;;;;;5028202;28;20211;-83
2022/10/13 03:56:54;;;;;;;14.60;7.82;;;6.90;99.90;;;;;;5028721;28;20281;-83
2022/10/13 03:59:22;;;;;;;10.38;7.82;;;6.90;99.90;;;;;;5028581;28;20238;-83
2022/10/13 04:01:48;;;;;;;12.95;7.90;;;6.90;99.90;;;;;;5026869;28;20637;-83
2022/10/13 04:04:15;;;;;;;15.27;9.00;;;7.10;99.90;;;;;;5030910;28;20212;-83
2022/10/13 04:06:42;;;;;;;11.90;7.38;;;6.90;99.90;;;;;;5030878;28;20201;-83
2022/10/13 04:09:09;;;;;;;9.68;6.72;;;6.90;99.90;;;;;;5030350;28;20202;-83
2022/10/13 04:11:35;;;;;;;12.05;7.68;;;6.90;99.90;;;;;;5031415;28;20258;-82
2022/10/13 04:14:02;;;;;;;15.65;7.68;;;7.00;99.90;;;;;;5028267;28;20211;-83
2022/10/13 04:16:31;;;;;;;12.10;7.90;;;7.00;99.90;;;;;;5024841;28;20218;-83
2022/10/13 04:19:00;;;;;;;11.60;8.25;;;7.00;99.90;;;;;;5023296;28;20234;-82
2022/10/13 04:21:28;;;;;;;11.80;8.10;;;6.90;99.90;;;;;;5024322;28;20233;-83
2022/10/13 04:23:56;;;;;;;11.82;7.47;;;7.00;99.90;;;;;;5024205;28;20210;-83
2022/10/13 04:26:25;;;;;;;10.88;9.10;;;7.00;99.90;;;;;;5022731;28;20234;-83
2022/10/13 04:28:53;;;;;;;9.52;8.52;;;7.10;99.90;;;;;;5022812;28;20206;-83
2022/10/13 04:31:21;;;;;;;18.63;10.23;;;7.10;99.90;;;;;;5023548;28;20219;-83
2022/10/13 04:33:50;;;;;;;13.38;9.00;;;7.10;99.90;;;;;;5027961;28;20227;-84
2022/10/13 04:36:17;;;;;;;11.38;9.27;;;7.00;99.90;;;;;;5035281;28;20207;-83
2022/10/13 04:38:44;;;;;;;23.45;9.02;;;7.30;99.90;;;;;;5028202;28;20250;-83
2022/10/13 04:41:13;;;;;;;10.02;8.73;;;7.00;99.90;;;;;;5025723;28;20694;-85
2022/10/13 04:43:39;;;;;;;17.58;8.85;;;7.00;99.90;;;;;;5024705;28;20212;-84
2022/10/13 04:46:08;;;;;;;11.15;8.13;;;7.10;99.90;;;;;;5022976;28;20212;-84
2022/10/13 04:48:35;;;;;;;10.70;8.13;;;7.10;99.90;;;;;;5021947;28;20291;-84
2022/10/13 04:51:05;;;;;;;10.02;7.55;;;7.20;99.90;;;;;;5021296;28;20227;-84
2022/10/13 04:53:33;;;;;;;11.93;8.70;;;7.30;99.90;;;;;;5020811;28;20232;-84
2022/10/13 04:56:02;;;;;;;15.60;8.45;;;7.30;99.90;;;;;;5024364;28;20207;-84
2022/10/13 04:58:28;;;;;;;14.55;8.25;;;7.50;99.90;;;;;;5025751;28;20246;-82
2022/10/13 05:00:55;;;;;;;17.30;8.30;;;7.40;99.90;;;;;;5023869;28;20199;-83
2022/10/13 05:03:22;;;;;;;13.93;9.15;;;7.30;99.90;;;;;;5021310;28;20238;-84
2022/10/13 05:05:49;;;;;;;11.95;8.80;;;7.30;99.90;;;;;;5021115;28;20219;-83
2022/10/13 05:08:17;;;;;;;11.70;8.50;;;7.40;99.90;;;;;;5032378;28;20203;-82
2022/10/13 05:10:53;;;;;;;22.92;8.70;;;7.40;99.90;;;;;;5035390;28;20207;-83
2022/10/13 05:13:20;;;;;;;12.68;9.70;;;7.40;99.90;;;;;;5032471;28;20293;-82
2022/10/13 05:15:46;;;;;;;12.80;8.27;;;7.30;99.90;;;;;;5027399;28;20208;-83
2022/10/13 05:18:13;;;;;;;19.23;8.73;;;7.30;99.90;;;;;;5023322;28;20223;-83
2022/10/13 05:20:40;;;;;;;12.77;8.85;;;7.40;99.90;;;;;;5023455;28;20212;-83
2022/10/13 05:23:06;;;;;;;12.95;9.15;;;7.30;99.90;;;;;;5022135;28;20231;-82
2022/10/13 05:25:36;;;;;;;14.52;9.23;;;7.30;99.90;;;;;;5021926;28;20211;-83
2022/10/13 05:28:03;;;;;;;15.55;8.45;;;7.30;99.90;;;;;;5021537;28;20617;-83
2022/10/13 05:30:31;;;;;;;17.75;8.73;;;7.30;99.90;;;;;;5032358;28;20207;-83
2022/10/13 05:32:57;;;;;;;18.35;10.15;;;7.40;99.90;;;;;;5033465;28;20235;-83
2022/10/13 05:35:24;;;;;;;17.92;9.50;;;7.40;99.90;;;;;;5033625;28;20208;-83
2022/10/13 05:37:51;;;;;;;16.92;10.07;;;7.40;99.90;;;;;;5023821;28;20228;-83
2022/10/13 05:40:20;;;;;;;15.32;9.13;;;7.40;99.90;;;;;;5023037;28;20214;-84
2022/10/13 05:42:49;;;;;;;18.23;10.32;;;7.40;99.90;;;;;;5022348;28;20263;-82
2022/10/13 05:45:20;;;;;;;11.27;8.85;;;7.40;99.90;;;;;;5022651;28;20304;-83
2022/10/13 05:47:46;;;;;;;15.30;9.65;;;7.40;99.90;;;;;;5022482;28;20184;-83
2022/10/13 05:50:13;;;;;;;23.63;10.63;;;7.50;99.90;;;;;;5023531;28;20207;-83
2022/10/13 05:52:41;;;;;;;15.32;9.60;;;7.50;99.90;;;;;;5023063;28;20220;-83
2022/10/13 05:55:10;;;;;;;19.45;11.55;;;7.90;99.90;;;;;;5024468;28;20222;-83
2022/10/13 05:57:39;;;;;;;15.10;10.85;;;7.50;99.90;;;;;;5034169;28;20203;-83
2022/10/13 06:00:10;;;;;;;19.10;11.20;;;7.50;99.90;;;;;;5032679;28;20461;-83
2022/10/13 06:02:41;;;;;;;22.10;10.40;;;7.50;99.90;;;;;;5033878;28;20230;-83
2022/10/13 06:05:14;;;;;;;16.33;10.07;;;7.50;99.90;;;;;;5034123;28;20199;-83
2022/10/13 06:07:41;;;;;;;12.82;11.35;;;7.50;99.90;;;;;;5033391;28;20203;-83
2022/10/13 06:10:10;;;;;;;18.20;10.85;;;7.50;99.90;;;;;;5033305;28;20261;-83
2022/10/13 06:12:37;;;;;;;16.35;8.88;;;7.50;99.90;;;;;;5022941;28;20234;-83
2022/10/13 06:15:04;;;;;;;17.65;11.57;;;7.60;99.90;;;;;;5022964;28;20597;-83
2022/10/13 06:17:35;;;;;;;17.48;10.77;;;7.70;99.90;;;;;;5021916;28;20218;-83
2022/10/13 06:20:04;;;;;;;22.63;10.57;;;7.70;99.90;;;;;;5022427;28;20192;-83
2022/10/13 06:22:31;;;;;;;20.77;11.65;;;7.60;99.90;;;;;;5021999;28;20255;-83
2022/10/13 06:24:57;;;;;;;21.55;10.07;;;7.70;99.90;;;;;;5021895;28;20212;-83
2022/10/13 06:27:24;;;;;;;12.93;11.48;;;7.80;99.90;;;;;;5021424;28;20633;-83
2022/10/13 06:29:50;;;;;;;17.63;11.10;;;7.80;99.90;;;;;;5023218;28;20208;-83
2022/10/13 06:32:17;;;;;;;19.85;10.68;;;7.80;99.90;;;;;;5026056;28;20243;-83
2022/10/13 06:34:45;;;;;;;23.98;12.68;;;7.80;99.90;;;;;;5026851;28;20231;-84
2022/10/13 06:37:12;;;;;;;18.03;13.63;;;7.90;99.90;;;;;;5026249;28;20217;-84
2022/10/13 06:39:39;;;;;;;17.75;11.85;;;7.90;99.90;;;;;;5027293;28;20486;-83
2022/10/13 06:42:05;;;;;;;19.23;11.25;;;8.20;99.90;;;;;;5026991;28;20293;-83
2022/10/13 06:44:32;;;;;;;19.25;11.80;;;7.90;99.90;;;;;;5027579;28;20211;-84
2022/10/13 06:46:59;;;;;;;17.83;11.63;;;7.90;99.90;;;;;;5026607;28;20213;-83
2022/10/13 06:49:26;;;;;;;19.65;11.45;;;8.00;99.90;;;;;;5028501;28;20954;-84
2022/10/13 06:51:54;;;;;;;17.02;10.88;;;7.90;99.90;;;;;;5028073;28;20238;-83
2022/10/13 06:54:21;;;;;;;19.08;12.85;;;8.00;99.90;;;;;;5030951;28;20208;-84
2022/10/13 06:56:47;;;;;;;13.43;10.43;;;8.00;99.90;;;;;;5034428;28;20211;-83
2022/10/13 06:59:14;;;;;;;15.65;12.07;;;8.10;99.90;;;;;;5036811;28;20228;-83
2022/10/13 07:01:41;;;;;;;16.50;11.80;;;8.10;99.90;;;;;;5031516;28;20254;-83
2022/10/13 07:04:07;;;;;;;19.30;12.67;;;8.20;99.90;;;;;;5029051;28;20432;-83
2022/10/13 07:06:34;;;;;;;16.57;11.20;;;8.30;99.90;;;;;;5029011;28;20426;-84
2022/10/13 07:09:04;;;;;;;19.80;12.73;;;8.40;99.90;;;;;;5031509;28;20485;-83
2022/10/13 07:11:31;;;;;;;19.03;13.60;;;8.00;99.90;;;;;;5028668;28;20455;-83
2022/10/13 07:13:57;;;;;;;15.87;11.43;;;8.50;99.90;;;;;;5034189;28;20422;-83
2022/10/13 07:16:24;;;;;;;19.40;11.97;;;8.50;99.90;;;;;;5035490;28;20418;-83
2022/10/13 07:18:51;;;;;;;16.77;11.67;;;8.40;99.90;;;;;;5037742;28;20475;-84
2022/10/13 07:21:17;;;;;;;25.83;12.23;;;8.70;99.90;;;;;;5029966;28;20954;-84
2022/10/13 07:23:44;;;;;;;32.30;12.67;;;8.50;99.90;;;;;;5026667;28;20447;-84
2022/10/13 07:26:14;;;;;;;19.00;11.90;;;8.50;99.90;;;;;;5028881;28;20450;-84
2022/10/13 07:28:42;;;;;;;19.50;12.77;;;8.60;99.90;;;;;;5029293;28;20391;-84
2022/10/13 07:31:12;;;;;;;17.40;11.90;;;8.70;99.90;;;;;;5026795;28;20451;-84
2022/10/13 07:33:40;;;;;;;17.97;12.03;;;8.70;99.90;;;;;;5025962;28;20506;-83
2022/10/13 07:36:07;;;;;;;16.07;12.10;;;8.80;99.90;;;;;;5025996;28;20448;-84
2022/10/13 07:38:34;;;;;;;19.50;12.47;;;8.90;99.90;;;;;;5026087;28;20485;-83
2022/10/13 07:41:01;;;;;;;17.27;12.17;;;9.00;99.90;;;;;;5025298;28;20429;-83
2022/10/13 07:43:30;;;;;;;22.67;12.80;;;9.10;99.90;;;;;;5036764;28;20459;-82
2022/10/13 07:45:58;;;;;;;21.27;13.80;;;9.20;99.90;;;;;;5040664;28;20414;-82
2022/10/13 07:48:25;;;;;;;16.57;12.43;;;10.40;99.90;;;;;;5041066;28;20401;-82
2022/10/13 07:50:52;;;;;;;24.40;13.17;;;9.20;99.90;;;;;;5031264;28;20517;-84
2022/10/13 07:53:19;;;;;;;18.30;12.83;;;9.20;99.90;;;;;;5029303;28;20435;-84
2022/10/13 07:55:45;;;;;;;25.30;14.40;;;9.30;99.90;;;;;;5028710;28;20447;-85
2022/10/13 07:58:12;;;;;;;34.17;15.60;;;9.30;99.90;;;;;;5028079;28;20440;-85
2022/10/13 08:00:40;;;;;;;14.50;11.80;;;9.50;99.90;;;;;;5027348;28;20444;-84
2022/10/13 08:03:07;;;;;;;19.87;13.47;;;9.50;99.90;;;;;;5028186;28;20445;-84
2022/10/13 08:05:36;;;;;;;17.80;13.10;;;9.70;99.90;;;;;;5029536;28;20850;-84
2022/10/13 08:08:02;;;;;;;16.70;13.00;;;9.80;99.90;;;;;;5029117;28;20988;-84
2022/10/13 08:10:29;;;;;;;17.80;12.03;;;9.90;99.90;;;;;;5029223;28;20422;-84
2022/10/13 08:12:56;;;;;;;14.70;12.20;;;10.10;99.90;;;;;;5027068;28;20467;-84
2022/10/13 08:15:22;;;;;;;15.97;11.17;;;10.30;99.90;;;;;;5026736;28;20439;-82
2022/10/13 08:17:51;;;;;;;27.23;13.43;;;10.40;99.90;;;;;;5027961;28;20458;-84
2022/10/13 08:20:17;;;;;;;19.53;12.97;;;11.10;99.90;;;;;;5027688;28;20468;-84
2022/10/13 08:22:44;;;;;;;16.43;11.60;;;10.80;99.90;;;;;;5026681;28;20442;-84
2022/10/13 08:25:11;;;;;;;16.80;13.13;;;10.90;99.90;;;;;;5028413;28;20427;-84
2022/10/13 08:27:38;;;;;;;22.10;12.87;;;10.90;99.90;;;;;;5029487;28;20429;-84
2022/10/13 08:30:05;;;;;;;15.00;11.93;;;11.30;99.90;;;;;;5036780;28;20513;-84
2022/10/13 08:32:32;;;;;;;16.90;12.20;;;11.30;99.90;;;;;;5032885;28;20476;-83
2022/10/13 08:35:00;;;;;;;13.97;12.27;;;11.30;99.90;;;;;;5026677;28;20950;-85
2022/10/13 08:37:26;;;;;;;18.87;12.70;;;11.50;99.90;;;;;;5026820;28;20441;-85
2022/10/13 08:39:55;;;;;;;14.70;11.23;;;11.60;26.40;;;;;;5027015;28;20479;-84
2022/10/13 08:42:22;;;;;;;17.40;11.17;;;11.70;1.00;;;;;;5025738;28;20471;-85
2022/10/13 08:44:53;;;;;;;18.43;12.90;;;11.90;1.00;;;;;;5027899;28;20478;-84
2022/10/13 08:47:37;;;;;;;19.37;13.30;;;11.90;1.00;;;;;;5029763;28;20413;-84
2022/10/13 08:50:11;;;;;;;16.50;13.33;;;12.00;1.00;;;;;;5025241;28;20431;-84
2022/10/13 08:52:50;;;;;;;18.07;13.10;;;12.10;99.90;;;;;;5024446;28;20469;-84
2022/10/13 08:55:23;;;;;;;12.30;11.00;;;12.10;99.90;;;;;;5023473;28;20443;-84
2022/10/13 08:57:50;;;;;;;19.77;12.33;;;12.20;99.90;;;;;;5023352;28;20440;-85
2022/10/13 09:00:17;;;;;;;16.20;12.23;;;12.30;99.90;;;;;;5025447;28;20537;-85
2022/10/13 09:02:49;;;;;;;16.03;11.60;;;12.40;99.90;;;;;;5026532;28;20467;-83
2022/10/13 09:05:25;;;;;;;18.53;11.57;;;12.40;1.00;;;;;;5027453;28;20463;-83
2022/10/13 09:07:55;;;;;;;15.00;12.27;;;12.50;1.00;;;;;;5027678;28;20431;-84
2022/10/13 09:10:22;;;;;;;19.90;12.53;;;12.50;1.00;;;;;;5026053;28;20440;-84
2022/10/13 09:12:50;;;;;;;16.80;11.90;;;12.50;1.00;;;;;;5025931;28;20467;-83
2022/10/13 09:15:17;;;;;;;15.67;11.67;;;12.50;99.90;;;;;;5026912;28;20522;-83
2022/10/13 09:17:44;;;;;;;23.70;12.43;;;12.60;1.00;;;;;;5026811;28;20434;-84
2022/10/13 09:20:21;;;;;;;14.33;11.23;;;12.80;99.90;;;;;;5030277;28;20466;-83
2022/10/13 09:23:02;;;;;;;23.90;15.10;;;12.90;99.90;;;;;;5033252;28;20463;-83
2022/10/13 09:25:30;;;;;;;16.87;12.87;;;13.10;99.90;;;;;;5033426;28;20432;-84
2022/10/13 09:27:59;;;;;;;15.23;12.50;;;13.10;99.90;;;;;;5031502;28;20447;-83
2022/10/13 09:30:31;;;;;;;18.33;12.63;;;13.10;1.00;;;;;;5028335;28;20470;-83
2022/10/13 09:33:17;;;;;;;18.83;12.40;;;13.10;1.00;;;;;;5033738;28;20449;-84
2022/10/13 09:35:47;;;;;;;20.70;12.90;;;13.10;1.00;;;;;;5024840;28;20417;-83
2022/10/13 09:38:18;;;;;;;13.50;12.10;;;13.10;1.00;;;;;;5033818;28;20402;-84
2022/10/13 09:40:59;;;;;;;15.83;11.90;;;13.20;99.90;;;;;;5032986;28;20475;-84
2022/10/13 09:43:30;;;;;;;23.03;14.83;;;13.40;99.90;;;;;;5035168;28;20883;-83
2022/10/13 09:45:57;;;;;;;20.43;14.10;;;13.50;1.00;;;;;;5035315;28;20423;-83
2022/10/13 09:48:28;;;;;;;17.37;14.00;;;13.60;1.00;;;;;;5035394;28;20450;-83
2022/10/13 09:50:57;;;;;;;14.93;13.30;;;13.70;1.00;;;;;;5036549;28;20450;-83
2022/10/13 09:53:30;;;;;;;22.27;12.53;;;13.80;1.00;;;;;;5034099;28;20495;-84
2022/10/13 09:56:09;;;;;;;15.40;12.83;;;14.10;99.90;;;;;;5027121;28;20451;-84
2022/10/13 09:58:41;;;;;;;19.40;11.50;;;13.90;85.60;;;;;;5025215;28;20436;-84
2022/10/13 10:01:16;;;;;;;17.70;12.50;;;13.40;1.00;;;;;;5025977;28;20416;-84
2022/10/13 10:03:43;;;;;;;17.20;13.33;;;14.00;99.90;;;;;;5025326;28;20436;-84
2022/10/13 10:06:15;;;;;;;16.00;13.77;;;14.10;99.90;;;;;;5027499;28;20447;-83
2022/10/13 10:08:48;;;;;;;17.33;12.97;;;14.20;99.90;;;;;;5036437;28;20438;-84
2022/10/13 10:11:19;;;;;;;23.70;15.00;;;14.20;99.90;;;;;;5038266;28;20428;-84
2022/10/13 10:13:45;;;;;;;23.30;16.30;;;14.30;99.90;;;;;;5032232;28;20483;-84
2022/10/13 10:16:19;;;;;;;21.70;15.07;;;14.40;99.90;;;;;;5033217;28;20446;-83
2022/10/13 10:18:49;;;;;;;16.90;15.20;;;14.40;99.90;;;;;;5035799;28;20432;-84
2022/10/13 10:21:28;;;;;;;17.43;13.40;;;14.80;99.90;;;;;;5030824;28;20481;-85
2022/10/13 10:24:02;;;;;;;22.20;15.30;;;14.50;11.00;;;;;;5026043;28;20463;-85
2022/10/13 10:26:43;;;;;;;20.03;16.33;;;14.60;74.00;;;;;;5025879;28;20406;-84
2022/10/13 10:29:22;;;;;;;27.50;17.50;;;14.60;64.60;;;;;;5027724;28;20436;-84
2022/10/13 10:32:09;;;;;;;23.50;15.00;;;14.70;25.90;;;;;;5035623;28;20486;-84
2022/10/13 10:34:41;;;;;;;19.83;15.10;;;14.70;3.30;;;;;;5037094;28;20406;-85
2022/10/13 10:37:19;;;;;;;24.03;14.63;;;14.70;1.00;;;;;;5036228;28;20409;-84
2022/10/13 10:39:56;;;;;;;20.60;15.07;;;14.70;1.00;;;;;;5037252;28;20467;-84
2022/10/13 10:42:52;;;;;;;19.57;14.77;;;14.70;1.00;;;;;;5036494;28;20469;-84
2022/10/13 10:45:22;;;;;;;24.43;15.67;;;14.70;1.00;;;;;;5034174;28;20407;-84
2022/10/13 10:47:53;;;;;;;22.17;14.93;;;14.70;37.20;;;;;;5032887;28;20414;-84
2022/10/13 10:50:21;;;;;;;20.40;14.97;;;14.60;99.90;;;;;;5030102;28;20427;-84
2022/10/13 10:52:58;;;;;;;26.97;18.30;;;14.50;99.90;;;;;;5030480;28;20474;-84
2022/10/13 10:55:30;;;;;;;21.73;15.43;;;14.60;99.90;;;;;;5028741;28;20439;-83
2022/10/13 10:58:05;;;;;;;19.30;16.13;;;16.10;99.90;;;;;;5027929;28;20438;-83
2022/10/13 11:00:37;;;;;;;18.40;14.83;;;14.60;99.90;;;;;;5027636;28;20797;-84
2022/10/13 11:03:11;;;;;;;20.10;13.63;;;14.60;99.90;;;;;;5028345;28;20812;-84
2022/10/13 11:06:01;;;;;;;21.70;14.37;;;14.90;1.00;;;;;;5031743;28;20429;-84
2022/10/13 11:08:38;;;;;;;17.20;14.07;;;14.50;1.00;;;;;;5033619;28;20534;-84
2022/10/13 11:11:29;;;;;;;18.40;13.40;;;14.80;99.90;;;;;;5031350;28;20432;-83
2022/10/13 11:13:58;;;;;;;26.00;13.73;;;14.90;99.90;;;;;;5022544;28;20527;-84
2022/10/13 11:16:31;;;;;;;17.60;14.43;;;14.80;99.90;;;;;;5027339;28;20447;-83
2022/10/13 11:19:07;;;;;;;18.43;12.80;;;15.10;37.70;;;;;;5027216;28;20417;-84
2022/10/13 11:22:23;;;;;;;18.77;15.50;;;15.00;99.90;;;;;;5030794;28;20531;-84
2022/10/13 11:25:00;;;;;;;19.07;14.40;;;15.20;1.00;;;;;;5035544;28;20428;-83
2022/10/13 11:27:39;;;;;;;20.43;13.83;;;15.20;1.00;;;;;;5031956;28;20429;-85
2022/10/13 11:30:35;;;;;;;20.43;15.67;;;15.30;1.00;;;;;;5029064;28;20979;-83
2022/10/13 11:33:08;;;;;;;31.47;20.53;;;15.30;1.00;;;;;;5028526;28;20482;-83
2022/10/13 11:35:34;;;;;;;22.10;16.70;;;15.40;1.00;;;;;;5028981;28;20498;-83
2022/10/13 11:38:25;;;;;;;20.27;16.10;;;15.60;99.90;;;;;;5027971;28;20483;-84
2022/10/13 11:41:11;;;;;;;21.90;14.50;;;15.50;1.00;;;;;;5032376;28;20463;-84
2022/10/13 11:43:47;;;;;;;22.43;15.50;;;15.50;1.00;;;;;;5032321;28;20475;-84
2022/10/13 11:46:26;;;;;;;18.93;14.17;;;15.30;99.90;;;;;;5027332;28;20490;-84
2022/10/13 11:49:28;;;;;;;20.37;13.47;;;15.50;1.00;;;;;;5025984;28;20433;-84
2022/10/13 11:52:19;;;;;;;15.60;13.60;;;15.50;1.00;;;;;;5024915;28;20478;-84
2022/10/13 11:54:50;;;;;;;20.17;13.40;;;15.60;1.00;;;;;;5025609;28;20467;-84
2022/10/13 11:57:20;;;;;;;28.17;14.73;;;15.60;1.00;;;;;;5022525;28;20459;-84
2022/10/13 11:59:50;;;;;;;21.57;12.90;;;15.80;99.90;;;;;;5022850;28;20483;-84
2022/10/13 12:02:17;;;;;;;21.70;13.33;;;15.90;99.90;;;;;;5026859;28;20467;-84
2022/10/13 12:04:58;;;;;;;29.77;14.10;;;16.10;99.90;;;;;;5025773;28;20451;-85
2022/10/13 12:07:27;;;;;;;20.20;12.67;;;17.40;99.90;;;;;;5025324;28;20398;-85
2022/10/13 12:09:57;;;;;;;18.33;12.17;;;16.30;99.90;;;;;;5037511;28;20409;-83
2022/10/13 12:12:25;;;;;;;19.70;11.57;;;16.40;99.90;;;;;;5039518;28;20457;-83
2022/10/13 12:14:55;;;;;;;16.67;10.20;;;16.40;99.90;;;;;;5039048;28;20440;-84
2022/10/13 12:17:23;;;;;;;13.20;10.33;;;16.40;1.00;;;;;;5031161;28;20498;-84
2022/10/13 12:19:51;;;;;;;16.23;10.37;;;16.30;99.90;;;;;;5026962;28;20490;-84
2022/10/13 12:22:17;;;;;;;13.73;11.13;;;16.30;99.90;;;;;;5027777;28;20480;-83
2022/10/13 12:24:56;;;;;;;17.00;10.80;;;16.30;99.90;;;;;;5027499;28;20444;-86
2022/10/13 12:27:24;;;;;;;15.90;10.40;;;16.20;99.90;;;;;;5025747;28;20435;-85
2022/10/13 12:29:51;;;;;;;16.90;12.00;;;16.20;99.90;;;;;;5026018;28;20436;-84
2022/10/13 12:32:19;;;;;;;15.67;11.87;;;16.20;99.90;;;;;;5025609;28;20483;-84
2022/10/13 12:34:46;;;;;;;14.83;11.37;;;16.20;99.90;;;;;;5024217;28;20458;-84
2022/10/13 12:37:24;;;;;;;14.23;10.80;;;16.30;75.90;;;;;;5025794;28;20447;-84
2022/10/13 12:39:51;;;;;;;11.93;10.57;;;;;;;;;;5024985;28;20471;-84
2022/10/13 12:42:18;;;;;;;11.27;10.07;;;16.30;97.10;;;;;;5024296;28;20474;-84
2022/10/13 12:44:46;;;;;;;23.07;13.50;;;16.30;99.90;;;;;;5025265;28;20448;-84
2022/10/13 12:47:46;;;;;;;19.13;12.87;;;17.10;99.90;;;;;;5026931;28;20447;-84
2022/10/13 12:50:32;;;;;;;16.33;11.90;;;16.30;99.90;;;;;;5037392;28;20436;-84
2022/10/13 12:53:12;;;;;;;13.97;10.47;;;16.20;99.90;;;;;;5035701;28;20464;-85
2022/10/13 12:55:49;;;;;;;20.83;11.63;;;16.30;47.60;;;;;;5028242;28;20495;-85
2022/10/13 12:58:21;;;;;;;13.87;11.20;;;16.30;91.50;;;;;;5026638;28;20495;-85